Weather at Haukeland Universitetssykehus Heliport

Public forecast

Using degrees Celsius for public forecast. Weather courtesy of forecast.io.

Closest aviation weather report (METAR) to Haukeland Universitetssykehus Heliport

Closest report is Bergen Airport, Flesland, 6.3 nm (11.7 km) SW. Retrieved 2021/10/22 02:20 UTC (33 minutes ago):

ENBR 220220Z VRB06G19KT 9999 FEW016CB SCT032 03/01 Q0991 RMK WIND 1200FT 31024KT

Closest aviation forecast (TAF) to Haukeland Universitetssykehus Heliport

Closest forecast is Bergen Airport, Flesland, 6.3 nm (11.7 km) SW. Retrieved 2021-10-22 00:57 UTC (2 hours ago):

TAF ENBR 212300Z 2200/2224 33015KT 9999 -SHRA FEW015TCU BKN030 TEMPO 2200/2218 33018G28KT 4000 SHRAGS BKN012 SCT018CB PROB40 TEMPO 2209/2216 33028G40KT